sensor_id;sensor_type;location;lat;lon;timestamp;temperature;humidity
57660;DHT22;43485;45.680;15.702;2023-06-22T00:01:01;26.10;47.80
57660;DHT22;43485;45.680;15.702;2023-06-22T00:03:27;26.10;48.50
57660;DHT22;43485;45.680;15.702;2023-06-22T00:05:53;26.10;48.50
57660;DHT22;43485;45.680;15.702;2023-06-22T00:08:19;26.10;49.30
57660;DHT22;43485;45.680;15.702;2023-06-22T00:10:45;26.00;48.60
57660;DHT22;43485;45.680;15.702;2023-06-22T00:13:12;26.00;48.60
57660;DHT22;43485;45.680;15.702;2023-06-22T00:15:39;26.00;48.60
57660;DHT22;43485;45.680;15.702;2023-06-22T00:18:06;25.90;48.30
57660;DHT22;43485;45.680;15.702;2023-06-22T00:20:33;26.00;48.70
57660;DHT22;43485;45.680;15.702;2023-06-22T00:23:03;25.90;48.40
57660;DHT22;43485;45.680;15.702;2023-06-22T00:25:48;25.90;48.50
57660;DHT22;43485;45.680;15.702;2023-06-22T00:28:14;25.80;48.70
57660;DHT22;43485;45.680;15.702;2023-06-22T00:30:40;25.80;48.80
57660;DHT22;43485;45.680;15.702;2023-06-22T00:33:06;25.80;48.90
57660;DHT22;43485;45.680;15.702;2023-06-22T00:35:33;25.80;48.90
57660;DHT22;43485;45.680;15.702;2023-06-22T00:37:59;25.80;48.90
57660;DHT22;43485;45.680;15.702;2023-06-22T00:40:27;25.80;49.10
57660;DHT22;43485;45.680;15.702;2023-06-22T00:42:53;25.80;49.10
57660;DHT22;43485;45.680;15.702;2023-06-22T00:45:20;25.70;49.20
57660;DHT22;43485;45.680;15.702;2023-06-22T00:47:49;25.70;49.00
57660;DHT22;43485;45.680;15.702;2023-06-22T00:50:18;25.70;49.50
57660;DHT22;43485;45.680;15.702;2023-06-22T00:55:37;25.60;49.80
57660;DHT22;43485;45.680;15.702;2023-06-22T00:58:04;25.60;49.90
57660;DHT22;43485;45.680;15.702;2023-06-22T01:00:35;25.60;50.00
57660;DHT22;43485;45.680;15.702;2023-06-22T01:03:02;25.50;50.00
57660;DHT22;43485;45.680;15.702;2023-06-22T01:05:28;25.50;50.20
57660;DHT22;43485;45.680;15.702;2023-06-22T01:16:44;25.40;50.80
57660;DHT22;43485;45.680;15.702;2023-06-22T01:21:48;25.30;51.50
57660;DHT22;43485;45.680;15.702;2023-06-22T01:24:15;25.30;51.80
57660;DHT22;43485;45.680;15.702;2023-06-22T01:29:32;25.20;52.30
57660;DHT22;43485;45.680;15.702;2023-06-22T01:31:58;25.20;52.40
57660;DHT22;43485;45.680;15.702;2023-06-22T01:34:26;25.10;52.40
57660;DHT22;43485;45.680;15.702;2023-06-22T01:36:55;25.10;52.50
57660;DHT22;43485;45.680;15.702;2023-06-22T01:39:22;25.10;52.70
57660;DHT22;43485;45.680;15.702;2023-06-22T01:41:48;25.10;52.90
57660;DHT22;43485;45.680;15.702;2023-06-22T01:44:15;25.10;53.00
57660;DHT22;43485;45.680;15.702;2023-06-22T01:46:41;25.10;53.00
57660;DHT22;43485;45.680;15.702;2023-06-22T01:49:07;25.00;53.30
57660;DHT22;43485;45.680;15.702;2023-06-22T01:51:34;25.00;53.40
57660;DHT22;43485;45.680;15.702;2023-06-22T01:54:02;25.00;53.80
57660;DHT22;43485;45.680;15.702;2023-06-22T01:56:28;24.90;54.30
57660;DHT22;43485;45.680;15.702;2023-06-22T02:01:48;24.70;54.90
57660;DHT22;43485;45.680;15.702;2023-06-22T02:04:20;24.70;55.00
57660;DHT22;43485;45.680;15.702;2023-06-22T02:06:51;24.60;55.10
57660;DHT22;43485;45.680;15.702;2023-06-22T02:09:19;24.60;55.50
57660;DHT22;43485;45.680;15.702;2023-06-22T02:11:46;24.50;55.70
57660;DHT22;43485;45.680;15.702;2023-06-22T02:14:14;24.50;55.80
57660;DHT22;43485;45.680;15.702;2023-06-22T02:16:40;24.40;55.60
57660;DHT22;43485;45.680;15.702;2023-06-22T02:19:06;24.40;55.50
57660;DHT22;43485;45.680;15.702;2023-06-22T02:21:34;24.30;56.50
57660;DHT22;43485;45.680;15.702;2023-06-22T02:24:00;24.30;56.40
57660;DHT22;43485;45.680;15.702;2023-06-22T02:26:26;24.20;56.40
57660;DHT22;43485;45.680;15.702;2023-06-22T02:28:52;24.20;56.10
57660;DHT22;43485;45.680;15.702;2023-06-22T02:31:18;24.10;57.00
57660;DHT22;43485;45.680;15.702;2023-06-22T02:33:45;23.90;57.60
57660;DHT22;43485;45.680;15.702;2023-06-22T02:36:11;23.90;57.10
57660;DHT22;43485;45.680;15.702;2023-06-22T02:38:38;23.80;58.00
57660;DHT22;43485;45.680;15.702;2023-06-22T02:43:58;23.60;58.20
57660;DHT22;43485;45.680;15.702;2023-06-22T02:46:24;23.60;58.30
57660;DHT22;43485;45.680;15.702;2023-06-22T02:48:50;23.60;58.60
57660;DHT22;43485;45.680;15.702;2023-06-22T02:51:16;23.60;58.40
57660;DHT22;43485;45.680;15.702;2023-06-22T02:53:41;23.60;58.30
57660;DHT22;43485;45.680;15.702;2023-06-22T02:56:10;23.50;58.50
57660;DHT22;43485;45.680;15.702;2023-06-22T02:58:50;23.60;58.50
57660;DHT22;43485;45.680;15.702;2023-06-22T03:01:16;23.60;58.30
57660;DHT22;43485;45.680;15.702;2023-06-22T03:04:01;23.60;58.20
57660;DHT22;43485;45.680;15.702;2023-06-22T03:06:27;23.70;58.40
57660;DHT22;43485;45.680;15.702;2023-06-22T03:08:58;23.70;58.40
57660;DHT22;43485;45.680;15.702;2023-06-22T03:11:26;23.70;58.30
57660;DHT22;43485;45.680;15.702;2023-06-22T03:13:52;23.60;57.70
57660;DHT22;43485;45.680;15.702;2023-06-22T03:16:18;23.60;58.20
57660;DHT22;43485;45.680;15.702;2023-06-22T03:18:44;23.60;58.10
57660;DHT22;43485;45.680;15.702;2023-06-22T03:21:10;23.60;57.70
57660;DHT22;43485;45.680;15.702;2023-06-22T03:23:36;23.70;58.40
57660;DHT22;43485;45.680;15.702;2023-06-22T03:26:02;23.70;58.30
57660;DHT22;43485;45.680;15.702;2023-06-22T03:28:29;23.70;58.10
57660;DHT22;43485;45.680;15.702;2023-06-22T03:33:40;23.70;58.10
57660;DHT22;43485;45.680;15.702;2023-06-22T03:36:06;23.80;58.30
57660;DHT22;43485;45.680;15.702;2023-06-22T03:38:32;23.80;58.50
57660;DHT22;43485;45.680;15.702;2023-06-22T03:40:58;23.70;58.60
57660;DHT22;43485;45.680;15.702;2023-06-22T03:43:24;23.80;58.60
57660;DHT22;43485;45.680;15.702;2023-06-22T03:45:50;23.80;58.60
57660;DHT22;43485;45.680;15.702;2023-06-22T03:48:16;23.80;58.70
57660;DHT22;43485;45.680;15.702;2023-06-22T03:50:42;23.90;58.50
57660;DHT22;43485;45.680;15.702;2023-06-22T03:53:09;23.90;58.70
57660;DHT22;43485;45.680;15.702;2023-06-22T03:55:36;23.90;59.00
57660;DHT22;43485;45.680;15.702;2023-06-22T03:58:02;23.90;58.60
57660;DHT22;43485;45.680;15.702;2023-06-22T04:00:31;24.00;59.10
57660;DHT22;43485;45.680;15.702;2023-06-22T04:06:02;24.00;58.70
57660;DHT22;43485;45.680;15.702;2023-06-22T04:08:29;24.00;59.20
57660;DHT22;43485;45.680;15.702;2023-06-22T04:10:55;24.10;59.40
57660;DHT22;43485;45.680;15.702;2023-06-22T04:13:21;24.00;59.60
57660;DHT22;43485;45.680;15.702;2023-06-22T04:15:47;24.10;59.60
57660;DHT22;43485;45.680;15.702;2023-06-22T04:18:13;24.20;59.10
57660;DHT22;43485;45.680;15.702;2023-06-22T04:20:39;24.30;59.20
57660;DHT22;43485;45.680;15.702;2023-06-22T04:23:05;24.30;58.70
57660;DHT22;43485;45.680;15.702;2023-06-22T04:25:31;24.30;59.00
57660;DHT22;43485;45.680;15.702;2023-06-22T04:27:57;24.40;59.40
57660;DHT22;43485;45.680;15.702;2023-06-22T04:30:29;24.40;58.40
57660;DHT22;43485;45.680;15.702;2023-06-22T04:32:57;24.50;58.70
57660;DHT22;43485;45.680;15.702;2023-06-22T04:38:09;24.60;58.50
57660;DHT22;43485;45.680;15.702;2023-06-22T04:40:38;24.60;58.90
57660;DHT22;43485;45.680;15.702;2023-06-22T04:43:05;24.60;58.80
57660;DHT22;43485;45.680;15.702;2023-06-22T04:48:17;24.70;59.10
57660;DHT22;43485;45.680;15.702;2023-06-22T04:50:43;24.70;59.00
57660;DHT22;43485;45.680;15.702;2023-06-22T04:53:09;24.80;58.60
57660;DHT22;43485;45.680;15.702;2023-06-22T04:55:38;24.90;58.60
57660;DHT22;43485;45.680;15.702;2023-06-22T04:58:07;24.90;58.10
57660;DHT22;43485;45.680;15.702;2023-06-22T05:00:33;25.00;58.30
57660;DHT22;43485;45.680;15.702;2023-06-22T05:03:01;25.00;58.30
57660;DHT22;43485;45.680;15.702;2023-06-22T05:05:29;25.00;57.70
57660;DHT22;43485;45.680;15.702;2023-06-22T05:07:56;25.10;58.10
57660;DHT22;43485;45.680;15.702;2023-06-22T05:10:25;25.10;58.10
57660;DHT22;43485;45.680;15.702;2023-06-22T05:12:58;25.10;58.00
57660;DHT22;43485;45.680;15.702;2023-06-22T05:15:24;25.20;58.70
57660;DHT22;43485;45.680;15.702;2023-06-22T05:17:53;25.20;57.70
57660;DHT22;43485;45.680;15.702;2023-06-22T05:20:19;25.30;57.70
57660;DHT22;43485;45.680;15.702;2023-06-22T05:22:45;25.30;57.70
57660;DHT22;43485;45.680;15.702;2023-06-22T05:25:11;25.30;57.80
57660;DHT22;43485;45.680;15.702;2023-06-22T05:27:37;25.30;57.90
57660;DHT22;43485;45.680;15.702;2023-06-22T05:32:50;25.30;57.80
57660;DHT22;43485;45.680;15.702;2023-06-22T05:35:18;25.40;57.90
57660;DHT22;43485;45.680;15.702;2023-06-22T05:37:44;25.40;57.70
57660;DHT22;43485;45.680;15.702;2023-06-22T05:40:09;25.40;57.80
57660;DHT22;43485;45.680;15.702;2023-06-22T05:42:36;25.40;57.50
57660;DHT22;43485;45.680;15.702;2023-06-22T05:45:02;25.50;57.80
57660;DHT22;43485;45.680;15.702;2023-06-22T05:47:28;25.50;57.30
57660;DHT22;43485;45.680;15.702;2023-06-22T05:49:54;25.60;57.60
57660;DHT22;43485;45.680;15.702;2023-06-22T05:52:20;25.70;57.50
57660;DHT22;43485;45.680;15.702;2023-06-22T05:54:46;25.80;57.30
57660;DHT22;43485;45.680;15.702;2023-06-22T05:57:12;25.80;57.00
57660;DHT22;43485;45.680;15.702;2023-06-22T05:59:38;25.80;56.60
57660;DHT22;43485;45.680;15.702;2023-06-22T06:02:04;25.80;56.50
57660;DHT22;43485;45.680;15.702;2023-06-22T06:04:30;25.90;55.90
57660;DHT22;43485;45.680;15.702;2023-06-22T06:06:56;26.00;56.90
57660;DHT22;43485;45.680;15.702;2023-06-22T06:09:22;26.10;56.80
57660;DHT22;43485;45.680;15.702;2023-06-22T06:11:48;26.10;56.50
57660;DHT22;43485;45.680;15.702;2023-06-22T06:14:14;26.20;55.90
57660;DHT22;43485;45.680;15.702;2023-06-22T06:16:42;26.30;55.40
57660;DHT22;43485;45.680;15.702;2023-06-22T06:19:08;26.40;55.00
57660;DHT22;43485;45.680;15.702;2023-06-22T06:21:34;26.50;54.90
57660;DHT22;43485;45.680;15.702;2023-06-22T06:24:02;26.40;55.00
57660;DHT22;43485;45.680;15.702;2023-06-22T06:26:29;26.50;54.20
57660;DHT22;43485;45.680;15.702;2023-06-22T06:28:59;26.70;54.20
57660;DHT22;43485;45.680;15.702;2023-06-22T06:31:26;26.70;54.00
57660;DHT22;43485;45.680;15.702;2023-06-22T06:34:10;26.80;53.40
57660;DHT22;43485;45.680;15.702;2023-06-22T06:36:36;26.80;53.80
57660;DHT22;43485;45.680;15.702;2023-06-22T06:39:02;26.90;53.50
57660;DHT22;43485;45.680;15.702;2023-06-22T06:41:29;26.90;53.20
57660;DHT22;43485;45.680;15.702;2023-06-22T06:43:55;27.00;53.40
57660;DHT22;43485;45.680;15.702;2023-06-22T06:46:21;27.10;53.30
57660;DHT22;43485;45.680;15.702;2023-06-22T06:48:47;27.20;53.00
57660;DHT22;43485;45.680;15.702;2023-06-22T06:51:13;27.30;52.80
57660;DHT22;43485;45.680;15.702;2023-06-22T06:53:38;27.30;52.80
57660;DHT22;43485;45.680;15.702;2023-06-22T06:56:04;27.50;52.30
57660;DHT22;43485;45.680;15.702;2023-06-22T06:58:30;27.60;52.20
57660;DHT22;43485;45.680;15.702;2023-06-22T07:00:56;27.60;51.50
57660;DHT22;43485;45.680;15.702;2023-06-22T07:03:22;27.70;51.70
57660;DHT22;43485;45.680;15.702;2023-06-22T07:05:48;27.80;51.50
57660;DHT22;43485;45.680;15.702;2023-06-22T07:08:14;27.90;50.80
57660;DHT22;43485;45.680;15.702;2023-06-22T07:10:40;28.10;51.70
57660;DHT22;43485;45.680;15.702;2023-06-22T07:13:06;28.20;51.40
57660;DHT22;43485;45.680;15.702;2023-06-22T07:15:32;28.30;50.90
57660;DHT22;43485;45.680;15.702;2023-06-22T07:17:58;28.50;51.10
57660;DHT22;43485;45.680;15.702;2023-06-22T07:20:24;28.70;50.90
57660;DHT22;43485;45.680;15.702;2023-06-22T07:22:51;28.80;50.50
57660;DHT22;43485;45.680;15.702;2023-06-22T07:25:17;28.90;50.10
57660;DHT22;43485;45.680;15.702;2023-06-22T07:27:44;28.90;49.80
57660;DHT22;43485;45.680;15.702;2023-06-22T07:30:29;29.00;50.20
57660;DHT22;43485;45.680;15.702;2023-06-22T07:32:56;29.10;49.70
57660;DHT22;43485;45.680;15.702;2023-06-22T07:35:22;29.30;49.40
57660;DHT22;43485;45.680;15.702;2023-06-22T07:37:48;29.50;49.10
57660;DHT22;43485;45.680;15.702;2023-06-22T07:40:13;29.50;48.70
57660;DHT22;43485;45.680;15.702;2023-06-22T07:42:39;29.70;48.10
57660;DHT22;43485;45.680;15.702;2023-06-22T07:45:06;29.80;47.60
57660;DHT22;43485;45.680;15.702;2023-06-22T07:47:33;29.90;47.40
57660;DHT22;43485;45.680;15.702;2023-06-22T07:50:00;30.10;47.50
57660;DHT22;43485;45.680;15.702;2023-06-22T07:52:27;30.30;46.40
57660;DHT22;43485;45.680;15.702;2023-06-22T07:54:54;30.40;45.90
57660;DHT22;43485;45.680;15.702;2023-06-22T07:57:20;30.40;44.10
57660;DHT22;43485;45.680;15.702;2023-06-22T07:59:46;30.60;44.60
57660;DHT22;43485;45.680;15.702;2023-06-22T08:02:12;30.80;44.60
57660;DHT22;43485;45.680;15.702;2023-06-22T08:04:38;30.90;44.10
57660;DHT22;43485;45.680;15.702;2023-06-22T08:07:04;30.90;43.00
57660;DHT22;43485;45.680;15.702;2023-06-22T08:09:31;31.10;43.90
57660;DHT22;43485;45.680;15.702;2023-06-22T08:11:58;31.20;43.50
57660;DHT22;43485;45.680;15.702;2023-06-22T08:14:25;31.30;42.80
57660;DHT22;43485;45.680;15.702;2023-06-22T08:16:51;31.40;42.50
57660;DHT22;43485;45.680;15.702;2023-06-22T08:19:17;31.50;42.20
57660;DHT22;43485;45.680;15.702;2023-06-22T08:21:43;31.60;42.10
57660;DHT22;43485;45.680;15.702;2023-06-22T08:24:09;31.60;37.80
57660;DHT22;43485;45.680;15.702;2023-06-22T08:26:35;31.70;38.40
57660;DHT22;43485;45.680;15.702;2023-06-22T08:29:03;31.90;39.60
57660;DHT22;43485;45.680;15.702;2023-06-22T08:31:30;32.10;39.90
57660;DHT22;43485;45.680;15.702;2023-06-22T08:33:57;32.20;39.40
57660;DHT22;43485;45.680;15.702;2023-06-22T08:36:23;32.30;39.50
57660;DHT22;43485;45.680;15.702;2023-06-22T08:38:49;32.40;39.20
57660;DHT22;43485;45.680;15.702;2023-06-22T08:41:17;32.30;37.90
57660;DHT22;43485;45.680;15.702;2023-06-22T08:43:43;32.20;38.80
57660;DHT22;43485;45.680;15.702;2023-06-22T08:46:10;32.40;39.00
57660;DHT22;43485;45.680;15.702;2023-06-22T08:48:36;32.60;38.80
57660;DHT22;43485;45.680;15.702;2023-06-22T08:51:02;32.60;38.60
57660;DHT22;43485;45.680;15.702;2023-06-22T08:53:28;32.70;38.90
57660;DHT22;43485;45.680;15.702;2023-06-22T08:55:54;32.80;38.70
57660;DHT22;43485;45.680;15.702;2023-06-22T08:58:20;32.90;38.60
57660;DHT22;43485;45.680;15.702;2023-06-22T09:00:47;33.00;39.10
57660;DHT22;43485;45.680;15.702;2023-06-22T09:03:13;33.20;38.70
57660;DHT22;43485;45.680;15.702;2023-06-22T09:05:40;33.20;38.70
57660;DHT22;43485;45.680;15.702;2023-06-22T09:08:06;33.30;39.00
57660;DHT22;43485;45.680;15.702;2023-06-22T09:10:32;33.40;38.40
57660;DHT22;43485;45.680;15.702;2023-06-22T09:12:58;33.60;38.60
57660;DHT22;43485;45.680;15.702;2023-06-22T09:15:24;33.70;37.50
57660;DHT22;43485;45.680;15.702;2023-06-22T09:17:50;33.70;38.40
57660;DHT22;43485;45.680;15.702;2023-06-22T09:20:16;34.00;38.50
57660;DHT22;43485;45.680;15.702;2023-06-22T09:22:41;34.00;38.30
57660;DHT22;43485;45.680;15.702;2023-06-22T09:25:08;33.90;37.80
57660;DHT22;43485;45.680;15.702;2023-06-22T09:27:34;34.00;37.10
57660;DHT22;43485;45.680;15.702;2023-06-22T09:30:00;34.20;38.00
57660;DHT22;43485;45.680;15.702;2023-06-22T09:32:26;34.30;38.00
57660;DHT22;43485;45.680;15.702;2023-06-22T09:34:52;34.50;38.10
57660;DHT22;43485;45.680;15.702;2023-06-22T09:37:18;34.60;37.40
57660;DHT22;43485;45.680;15.702;2023-06-22T09:39:44;34.90;37.30
57660;DHT22;43485;45.680;15.702;2023-06-22T09:42:10;35.00;36.40
57660;DHT22;43485;45.680;15.702;2023-06-22T09:44:38;35.30;37.10
57660;DHT22;43485;45.680;15.702;2023-06-22T09:47:13;35.60;35.10
57660;DHT22;43485;45.680;15.702;2023-06-22T09:49:39;36.10;36.10
57660;DHT22;43485;45.680;15.702;2023-06-22T09:52:05;36.70;35.90
57660;DHT22;43485;45.680;15.702;2023-06-22T09:54:31;37.20;34.40
57660;DHT22;43485;45.680;15.702;2023-06-22T09:56:57;37.80;34.30
57660;DHT22;43485;45.680;15.702;2023-06-22T09:59:29;38.40;33.20
57660;DHT22;43485;45.680;15.702;2023-06-22T10:01:55;38.70;31.00
57660;DHT22;43485;45.680;15.702;2023-06-22T10:04:21;38.80;31.10
57660;DHT22;43485;45.680;15.702;2023-06-22T10:06:47;39.10;31.30
57660;DHT22;43485;45.680;15.702;2023-06-22T10:09:13;39.40;30.40
57660;DHT22;43485;45.680;15.702;2023-06-22T10:11:38;39.70;30.00
57660;DHT22;43485;45.680;15.702;2023-06-22T10:14:04;40.40;29.70
57660;DHT22;43485;45.680;15.702;2023-06-22T10:16:30;40.50;28.90
57660;DHT22;43485;45.680;15.702;2023-06-22T10:18:56;40.50;28.70
57660;DHT22;43485;45.680;15.702;2023-06-22T10:21:22;40.80;28.30
57660;DHT22;43485;45.680;15.702;2023-06-22T10:23:48;41.10;28.50
57660;DHT22;43485;45.680;15.702;2023-06-22T10:26:14;41.30;28.00
57660;DHT22;43485;45.680;15.702;2023-06-22T10:28:40;41.70;27.40
57660;DHT22;43485;45.680;15.702;2023-06-22T10:31:06;42.20;26.80
57660;DHT22;43485;45.680;15.702;2023-06-22T10:33:32;42.60;26.20
57660;DHT22;43485;45.680;15.702;2023-06-22T10:35:58;43.20;26.00
57660;DHT22;43485;45.680;15.702;2023-06-22T10:38:24;43.50;25.60
57660;DHT22;43485;45.680;15.702;2023-06-22T10:40:50;44.00;25.70
57660;DHT22;43485;45.680;15.702;2023-06-22T10:43:16;44.50;24.60
57660;DHT22;43485;45.680;15.702;2023-06-22T10:45:42;45.00;24.80
57660;DHT22;43485;45.680;15.702;2023-06-22T10:48:07;45.20;23.70
57660;DHT22;43485;45.680;15.702;2023-06-22T10:50:33;45.50;23.70
57660;DHT22;43485;45.680;15.702;2023-06-22T10:52:59;46.00;23.50
57660;DHT22;43485;45.680;15.702;2023-06-22T10:55:25;46.50;23.10
57660;DHT22;43485;45.680;15.702;2023-06-22T10:57:51;46.90;21.80
57660;DHT22;43485;45.680;15.702;2023-06-22T11:00:38;47.20;22.10
57660;DHT22;43485;45.680;15.702;2023-06-22T11:03:14;47.40;21.70
57660;DHT22;43485;45.680;15.702;2023-06-22T11:05:40;47.60;20.20
57660;DHT22;43485;45.680;15.702;2023-06-22T11:08:07;48.00;20.90
57660;DHT22;43485;45.680;15.702;2023-06-22T11:10:33;48.60;20.50
57660;DHT22;43485;45.680;15.702;2023-06-22T11:12:58;48.70;19.40
57660;DHT22;43485;45.680;15.702;2023-06-22T11:15:25;48.90;19.70
57660;DHT22;43485;45.680;15.702;2023-06-22T11:17:51;49.10;19.60
57660;DHT22;43485;45.680;15.702;2023-06-22T11:20:16;49.20;19.60
57660;DHT22;43485;45.680;15.702;2023-06-22T11:22:42;49.10;19.60
57660;DHT22;43485;45.680;15.702;2023-06-22T11:25:08;49.30;19.60
57660;DHT22;43485;45.680;15.702;2023-06-22T11:27:34;49.80;18.80
57660;DHT22;43485;45.680;15.702;2023-06-22T11:30:15;50.00;18.70
57660;DHT22;43485;45.680;15.702;2023-06-22T11:32:41;50.30;18.00
57660;DHT22;43485;45.680;15.702;2023-06-22T11:35:07;50.30;18.10
57660;DHT22;43485;45.680;15.702;2023-06-22T11:37:33;50.60;18.10
57660;DHT22;43485;45.680;15.702;2023-06-22T11:39:59;50.70;18.20
57660;DHT22;43485;45.680;15.702;2023-06-22T11:42:25;50.80;17.80
57660;DHT22;43485;45.680;15.702;2023-06-22T11:44:51;50.60;18.00
57660;DHT22;43485;45.680;15.702;2023-06-22T11:47:17;50.60;18.00
57660;DHT22;43485;45.680;15.702;2023-06-22T11:49:43;50.60;17.40
57660;DHT22;43485;45.680;15.702;2023-06-22T11:52:09;50.80;17.70
57660;DHT22;43485;45.680;15.702;2023-06-22T11:54:35;50.80;17.50
57660;DHT22;43485;45.680;15.702;2023-06-22T11:57:01;51.20;17.70
57660;DHT22;43485;45.680;15.702;2023-06-22T11:59:27;51.40;17.70
57660;DHT22;43485;45.680;15.702;2023-06-22T12:01:53;51.40;17.90
57660;DHT22;43485;45.680;15.702;2023-06-22T12:04:19;51.20;17.70
57660;DHT22;43485;45.680;15.702;2023-06-22T12:06:45;51.20;17.30
57660;DHT22;43485;45.680;15.702;2023-06-22T12:09:11;51.20;17.80
57660;DHT22;43485;45.680;15.702;2023-06-22T12:11:39;51.20;17.50
57660;DHT22;43485;45.680;15.702;2023-06-22T12:14:05;51.30;17.30
57660;DHT22;43485;45.680;15.702;2023-06-22T12:19:18;51.90;16.60
57660;DHT22;43485;45.680;15.702;2023-06-22T12:21:44;52.00;16.50
57660;DHT22;43485;45.680;15.702;2023-06-22T12:24:11;52.20;15.90
57660;DHT22;43485;45.680;15.702;2023-06-22T12:26:37;52.50;16.70
57660;DHT22;43485;45.680;15.702;2023-06-22T12:29:03;52.30;16.90
57660;DHT22;43485;45.680;15.702;2023-06-22T12:31:29;52.40;16.60
57660;DHT22;43485;45.680;15.702;2023-06-22T12:33:54;52.40;16.60
57660;DHT22;43485;45.680;15.702;2023-06-22T12:36:20;51.80;16.00
57660;DHT22;43485;45.680;15.702;2023-06-22T12:38:46;51.60;16.40
57660;DHT22;43485;45.680;15.702;2023-06-22T12:41:12;51.50;16.70
57660;DHT22;43485;45.680;15.702;2023-06-22T12:43:38;51.40;16.70
57660;DHT22;43485;45.680;15.702;2023-06-22T12:46:04;51.10;17.40
57660;DHT22;43485;45.680;15.702;2023-06-22T12:48:30;51.20;17.90
57660;DHT22;43485;45.680;15.702;2023-06-22T12:50:56;51.10;18.20
57660;DHT22;43485;45.680;15.702;2023-06-22T12:53:22;50.90;17.80
57660;DHT22;43485;45.680;15.702;2023-06-22T12:55:49;50.50;17.40
57660;DHT22;43485;45.680;15.702;2023-06-22T12:58:15;49.80;17.10
57660;DHT22;43485;45.680;15.702;2023-06-22T13:00:41;49.20;18.50
57660;DHT22;43485;45.680;15.702;2023-06-22T13:03:06;48.50;18.70
57660;DHT22;43485;45.680;15.702;2023-06-22T13:05:32;47.50;19.30
57660;DHT22;43485;45.680;15.702;2023-06-22T13:08:00;47.00;20.90
57660;DHT22;43485;45.680;15.702;2023-06-22T13:10:26;46.40;21.10
57660;DHT22;43485;45.680;15.702;2023-06-22T13:13:10;45.80;21.60
57660;DHT22;43485;45.680;15.702;2023-06-22T13:15:36;45.40;22.00
57660;DHT22;43485;45.680;15.702;2023-06-22T13:18:02;45.40;22.60
57660;DHT22;43485;45.680;15.702;2023-06-22T13:20:28;45.10;23.00
57660;DHT22;43485;45.680;15.702;2023-06-22T13:22:55;44.90;22.50
57660;DHT22;43485;45.680;15.702;2023-06-22T13:25:21;44.60;22.90
57660;DHT22;43485;45.680;15.702;2023-06-22T13:27:51;44.50;23.30
57660;DHT22;43485;45.680;15.702;2023-06-22T13:30:17;44.30;23.70
57660;DHT22;43485;45.680;15.702;2023-06-22T13:32:43;44.00;23.80
57660;DHT22;43485;45.680;15.702;2023-06-22T13:35:12;43.70;23.50
57660;DHT22;43485;45.680;15.702;2023-06-22T13:37:38;43.60;24.10
57660;DHT22;43485;45.680;15.702;2023-06-22T13:40:05;43.50;24.60
57660;DHT22;43485;45.680;15.702;2023-06-22T13:42:32;43.40;25.10
57660;DHT22;43485;45.680;15.702;2023-06-22T13:44:58;43.30;25.20
57660;DHT22;43485;45.680;15.702;2023-06-22T13:47:24;43.10;25.60
57660;DHT22;43485;45.680;15.702;2023-06-22T13:49:50;43.00;26.00
57660;DHT22;43485;45.680;15.702;2023-06-22T13:52:16;42.90;25.90
57660;DHT22;43485;45.680;15.702;2023-06-22T13:54:42;42.90;26.00
57660;DHT22;43485;45.680;15.702;2023-06-22T13:57:08;42.70;26.10
57660;DHT22;43485;45.680;15.702;2023-06-22T13:59:34;42.60;26.30
57660;DHT22;43485;45.680;15.702;2023-06-22T14:02:00;42.60;26.70
57660;DHT22;43485;45.680;15.702;2023-06-22T14:04:25;42.60;26.70
57660;DHT22;43485;45.680;15.702;2023-06-22T14:06:51;42.50;26.00
57660;DHT22;43485;45.680;15.702;2023-06-22T14:09:17;42.30;26.30
57660;DHT22;43485;45.680;15.702;2023-06-22T14:11:43;42.10;26.70
57660;DHT22;43485;45.680;15.702;2023-06-22T14:14:09;42.10;27.30
57660;DHT22;43485;45.680;15.702;2023-06-22T14:16:35;42.10;27.40
57660;DHT22;43485;45.680;15.702;2023-06-22T14:19:01;42.20;27.50
57660;DHT22;43485;45.680;15.702;2023-06-22T14:21:27;42.10;27.90
57660;DHT22;43485;45.680;15.702;2023-06-22T14:23:53;42.00;27.60
57660;DHT22;43485;45.680;15.702;2023-06-22T14:26:19;41.90;27.30
57660;DHT22;43485;45.680;15.702;2023-06-22T14:28:45;41.70;27.50
57660;DHT22;43485;45.680;15.702;2023-06-22T14:31:34;41.60;27.80
57660;DHT22;43485;45.680;15.702;2023-06-22T14:34:00;41.70;28.50
57660;DHT22;43485;45.680;15.702;2023-06-22T14:36:27;41.50;28.10
57660;DHT22;43485;45.680;15.702;2023-06-22T14:38:53;41.50;28.40
57660;DHT22;43485;45.680;15.702;2023-06-22T14:41:19;41.40;28.00
57660;DHT22;43485;45.680;15.702;2023-06-22T14:43:46;41.50;28.60
57660;DHT22;43485;45.680;15.702;2023-06-22T14:46:13;41.40;28.50
57660;DHT22;43485;45.680;15.702;2023-06-22T14:48:40;41.20;28.80
57660;DHT22;43485;45.680;15.702;2023-06-22T14:51:07;41.20;29.20
57660;DHT22;43485;45.680;15.702;2023-06-22T14:53:34;41.10;29.10
57660;DHT22;43485;45.680;15.702;2023-06-22T14:56:00;40.80;29.20
57660;DHT22;43485;45.680;15.702;2023-06-22T14:58:27;40.50;29.40
57660;DHT22;43485;45.680;15.702;2023-06-22T15:01:15;40.20;29.70
57660;DHT22;43485;45.680;15.702;2023-06-22T15:03:42;40.00;30.10
57660;DHT22;43485;45.680;15.702;2023-06-22T15:06:08;39.80;30.40
57660;DHT22;43485;45.680;15.702;2023-06-22T15:08:34;39.80;30.60
57660;DHT22;43485;45.680;15.702;2023-06-22T15:11:03;39.80;30.90
57660;DHT22;43485;45.680;15.702;2023-06-22T15:13:30;39.70;31.00
57660;DHT22;43485;45.680;15.702;2023-06-22T15:16:16;39.70;30.90
57660;DHT22;43485;45.680;15.702;2023-06-22T15:18:42;39.50;31.30
57660;DHT22;43485;45.680;15.702;2023-06-22T15:21:08;39.40;31.80
57660;DHT22;43485;45.680;15.702;2023-06-22T15:23:34;39.10;32.20
57660;DHT22;43485;45.680;15.702;2023-06-22T15:28:45;38.80;33.00
57660;DHT22;43485;45.680;15.702;2023-06-22T15:31:23;38.70;33.20
57660;DHT22;43485;45.680;15.702;2023-06-22T15:33:49;38.60;33.40
57660;DHT22;43485;45.680;15.702;2023-06-22T15:36:15;38.50;33.50
57660;DHT22;43485;45.680;15.702;2023-06-22T15:38:41;38.60;34.10
57660;DHT22;43485;45.680;15.702;2023-06-22T15:41:07;38.60;34.60
57660;DHT22;43485;45.680;15.702;2023-06-22T15:43:33;38.60;34.30
57660;DHT22;43485;45.680;15.702;2023-06-22T15:46:19;38.60;34.40
57660;DHT22;43485;45.680;15.702;2023-06-22T15:48:46;38.60;34.00
57660;DHT22;43485;45.680;15.702;2023-06-22T15:51:12;38.50;33.90
57660;DHT22;43485;45.680;15.702;2023-06-22T15:53:39;38.40;34.70
57660;DHT22;43485;45.680;15.702;2023-06-22T15:56:06;38.40;34.90